sensor_id;sensor_type;location;lat;lon;timestamp;pressure;altitude;pressure_sealevel;temperature;humidity
48774;BME280;34576;0.000;0.000;2024-02-16T00:07:01;96491.84;;;17.39;68.28
48774;BME280;34576;0.000;0.000;2024-02-16T00:14:03;96490.75;;;17.40;68.86
48774;BME280;34576;0.000;0.000;2024-02-16T00:21:04;96493.69;;;17.43;69.20
48774;BME280;34576;0.000;0.000;2024-02-16T00:28:05;96491.59;;;17.35;69.44
48774;BME280;34576;0.000;0.000;2024-02-16T00:35:05;96488.66;;;17.37;69.44
48774;BME280;34576;0.000;0.000;2024-02-16T00:42:07;96493.19;;;17.36;70.17
48774;BME280;34576;0.000;0.000;2024-02-16T00:49:11;96500.91;;;17.38;70.42
48774;BME280;34576;0.000;0.000;2024-02-16T00:56:14;96511.53;;;17.38;70.45
48774;BME280;34576;0.000;0.000;2024-02-16T01:03:15;96498.75;;;17.40;70.77
48774;BME280;34576;0.000;0.000;2024-02-16T01:10:17;96498.75;;;17.40;70.69
48774;BME280;34576;0.000;0.000;2024-02-16T01:17:21;96498.75;;;17.40;70.89
48774;BME280;34576;0.000;0.000;2024-02-16T01:24:22;96494.47;;;17.44;67.58
48774;BME280;34576;0.000;0.000;2024-02-16T01:31:23;96498.69;;;17.50;68.00
48774;BME280;34576;0.000;0.000;2024-02-16T01:38:24;96508.25;;;17.51;68.35
48774;BME280;34576;0.000;0.000;2024-02-16T01:45:24;96490.16;;;17.53;67.90
48774;BME280;34576;0.000;0.000;2024-02-16T01:52:24;96499.75;;;17.54;69.04
48774;BME280;34576;0.000;0.000;2024-02-16T01:59:26;96490.94;;;17.54;67.87
48774;BME280;34576;0.000;0.000;2024-02-16T02:06:28;96494.66;;;17.53;66.90
48774;BME280;34576;0.000;0.000;2024-02-16T02:13:28;96501.34;;;17.50;67.57
48774;BME280;34576;0.000;0.000;2024-02-16T02:20:29;96496.53;;;17.52;67.61
48774;BME280;34576;0.000;0.000;2024-02-16T02:27:31;96465.97;;;17.50;66.76
48774;BME280;34576;0.000;0.000;2024-02-16T02:34:31;96460.91;;;17.53;67.33
48774;BME280;34576;0.000;0.000;2024-02-16T02:41:32;96450.28;;;17.53;67.05
48774;BME280;34576;0.000;0.000;2024-02-16T02:48:32;96446.56;;;17.54;67.73
48774;BME280;34576;0.000;0.000;2024-02-16T02:55:33;96458.75;;;17.55;67.38
48774;BME280;34576;0.000;0.000;2024-02-16T03:02:35;96461.47;;;17.50;67.30
48774;BME280;34576;0.000;0.000;2024-02-16T03:09:36;96465.69;;;17.51;66.40
48774;BME280;34576;0.000;0.000;2024-02-16T03:16:36;96477.44;;;17.50;66.70
48774;BME280;34576;0.000;0.000;2024-02-16T03:23:36;96474.72;;;17.55;68.72
48774;BME280;34576;0.000;0.000;2024-02-16T03:30:37;96469.94;;;17.52;66.91
48774;BME280;34576;0.000;0.000;2024-02-16T03:37:40;96474.75;;;17.50;66.83
48774;BME280;34576;0.000;0.000;2024-02-16T03:44:41;96467.56;;;17.51;67.25
48774;BME280;34576;0.000;0.000;2024-02-16T03:51:44;96461.47;;;17.50;67.55
48774;BME280;34576;0.000;0.000;2024-02-16T03:58:44;96469.16;;;17.52;67.26
48774;BME280;34576;0.000;0.000;2024-02-16T04:05:53;96464.91;;;17.51;66.99
48774;BME280;34576;0.000;0.000;2024-02-16T04:12:54;96482.75;;;17.50;67.20
48774;BME280;34576;0.000;0.000;2024-02-16T04:19:55;96485.13;;;17.52;67.13
48774;BME280;34576;0.000;0.000;2024-02-16T04:26:55;96491.22;;;17.52;66.70
48774;BME280;34576;0.000;0.000;2024-02-16T04:33:56;96497.31;;;17.53;66.95
48774;BME280;34576;0.000;0.000;2024-02-16T04:40:56;96502.41;;;17.49;66.33
48774;BME280;34576;0.000;0.000;2024-02-16T04:47:56;96495.75;;;17.52;67.93
48774;BME280;34576;0.000;0.000;2024-02-16T04:54:57;96511.19;;;17.50;71.89
48774;BME280;34576;0.000;0.000;2024-02-16T05:02:01;96514.09;;;17.53;71.37
48774;BME280;34576;0.000;0.000;2024-02-16T05:09:04;96517.81;;;17.52;72.23
48774;BME280;34576;0.000;0.000;2024-02-16T05:16:09;96518.38;;;17.49;72.75
48774;BME280;34576;0.000;0.000;2024-02-16T05:23:11;96521.25;;;17.53;72.59
48774;BME280;34576;0.000;0.000;2024-02-16T05:30:12;96518.38;;;17.49;73.09
48774;BME280;34576;0.000;0.000;2024-02-16T05:37:14;96526.06;;;17.51;73.09
48774;BME280;34576;0.000;0.000;2024-02-16T05:44:16;96524.25;;;17.46;73.35
48774;BME280;34576;0.000;0.000;2024-02-16T05:51:17;96531.13;;;17.47;73.78
48774;BME280;34576;0.000;0.000;2024-02-16T05:58:19;96539.16;;;17.42;73.84
48774;BME280;34576;0.000;0.000;2024-02-16T06:05:20;96533.28;;;17.45;74.21
48774;BME280;34576;0.000;0.000;2024-02-16T06:12:22;96531.13;;;17.47;73.92
48774;BME280;34576;0.000;0.000;2024-02-16T06:19:23;96536.72;;;17.46;74.77
48774;BME280;34576;0.000;0.000;2024-02-16T06:26:24;96543.16;;;17.39;74.77
48774;BME280;34576;0.000;0.000;2024-02-16T06:33:27;96544.00;;;17.35;74.61
48774;BME280;34576;0.000;0.000;2024-02-16T06:40:27;96562.81;;;17.43;74.22
48774;BME280;34576;0.000;0.000;2024-02-16T06:47:28;96565.50;;;17.38;74.08
48774;BME280;34576;0.000;0.000;2024-02-16T06:54:29;96567.06;;;17.45;73.17
48774;BME280;34576;0.000;0.000;2024-02-16T07:01:33;96580.56;;;16.83;66.95
48774;BME280;34576;0.000;0.000;2024-02-16T07:08:33;96593.50;;;15.50;58.38
48774;BME280;34576;0.000;0.000;2024-02-16T07:15:34;96605.13;;;15.34;56.19
48774;BME280;34576;0.000;0.000;2024-02-16T07:22:35;96616.16;;;15.15;55.37
48774;BME280;34576;0.000;0.000;2024-02-16T07:29:37;96602.41;;;16.38;58.51
48774;BME280;34576;0.000;0.000;2024-02-16T07:36:42;96616.47;;;16.65;60.31
48774;BME280;34576;0.000;0.000;2024-02-16T07:43:44;96629.44;;;16.71;61.47
48774;BME280;34576;0.000;0.000;2024-02-16T07:50:47;96627.06;;;16.80;62.42
48774;BME280;34576;0.000;0.000;2024-02-16T07:57:49;96633.16;;;16.81;63.33
48774;BME280;34576;0.000;0.000;2024-02-16T08:05:13;96632.91;;;16.82;64.11
48774;BME280;34576;0.000;0.000;2024-02-16T08:12:17;96627.34;;;16.89;64.46
48774;BME280;34576;0.000;0.000;2024-02-16T08:19:18;96634.22;;;16.90;64.92
48774;BME280;34576;0.000;0.000;2024-02-16T08:26:20;96642.97;;;16.96;65.17
48774;BME280;34576;0.000;0.000;2024-02-16T08:33:21;96644.06;;;16.95;65.68
48774;BME280;34576;0.000;0.000;2024-02-16T08:40:22;96660.25;;;16.98;65.71
48774;BME280;34576;0.000;0.000;2024-02-16T08:47:24;96669.56;;;17.01;65.86
48774;BME280;34576;0.000;0.000;2024-02-16T08:54:26;96681.75;;;17.07;66.03
48774;BME280;34576;0.000;0.000;2024-02-16T09:01:33;96677.53;;;17.06;66.12
48774;BME280;34576;0.000;0.000;2024-02-16T09:08:34;96681.22;;;17.10;66.30
48774;BME280;34576;0.000;0.000;2024-02-16T09:15:35;96688.13;;;17.11;66.05
48774;BME280;34576;0.000;0.000;2024-02-16T09:22:38;96689.75;;;17.12;66.33
48774;BME280;34576;0.000;0.000;2024-02-16T09:29:40;96691.34;;;17.13;66.42
48774;BME280;34576;0.000;0.000;2024-02-16T09:36:40;96702.75;;;17.14;66.43
48774;BME280;34576;0.000;0.000;2024-02-16T09:43:40;96707.81;;;17.15;66.72
48774;BME280;34576;0.000;0.000;2024-02-16T09:50:41;96713.91;;;17.16;66.63
48774;BME280;34576;0.000;0.000;2024-02-16T09:57:42;96721.09;;;17.15;66.88
48774;BME280;34576;0.000;0.000;2024-02-16T10:04:46;96726.41;;;17.15;66.88
48774;BME280;34576;0.000;0.000;2024-02-16T10:11:47;96729.84;;;17.16;66.94
48774;BME280;34576;0.000;0.000;2024-02-16T10:18:48;96734.66;;;17.14;67.22
48774;BME280;34576;0.000;0.000;2024-02-16T10:25:48;96744.50;;;17.13;67.20
48774;BME280;34576;0.000;0.000;2024-02-16T10:32:49;96741.56;;;17.15;67.42
48774;BME280;34576;0.000;0.000;2024-02-16T10:40:12;96739.97;;;17.14;67.55
48774;BME280;34576;0.000;0.000;2024-02-16T10:47:25;96744.22;;;17.15;67.71
48774;BME280;34576;0.000;0.000;2024-02-16T10:54:27;96757.25;;;17.16;67.37
48774;BME280;34576;0.000;0.000;2024-02-16T11:01:32;96750.88;;;17.17;67.71
48774;BME280;34576;0.000;0.000;2024-02-16T11:08:44;96759.91;;;17.16;67.59
48774;BME280;34576;0.000;0.000;2024-02-16T11:15:57;96756.19;;;17.17;67.51
48774;BME280;34576;0.000;0.000;2024-02-16T11:23:08;96755.09;;;17.18;67.77
48774;BME280;34576;0.000;0.000;2024-02-16T11:30:10;96770.00;;;17.19;67.78
48774;BME280;34576;0.000;0.000;2024-02-16T11:37:12;96768.41;;;17.18;67.73
48774;BME280;34576;0.000;0.000;2024-02-16T11:44:13;96772.66;;;17.19;67.82
48774;BME280;34576;0.000;0.000;2024-02-16T11:51:16;96771.59;;;17.20;67.71
48774;BME280;34576;0.000;0.000;2024-02-16T11:58:17;96781.16;;;17.21;67.66
48774;BME280;34576;0.000;0.000;2024-02-16T12:05:18;96777.72;;;17.21;67.63
48774;BME280;34576;0.000;0.000;2024-02-16T12:12:19;96780.09;;;17.22;67.91
48774;BME280;34576;0.000;0.000;2024-02-16T12:19:19;96779.31;;;17.22;67.90
48774;BME280;34576;0.000;0.000;2024-02-16T12:26:21;96787.00;;;17.23;67.81
48774;BME280;34576;0.000;0.000;2024-02-16T12:33:22;96789.13;;;17.21;67.80
48774;BME280;34576;0.000;0.000;2024-02-16T12:40:23;96790.72;;;17.22;67.94
48774;BME280;34576;0.000;0.000;2024-02-16T12:47:26;96801.91;;;17.19;68.23
48774;BME280;34576;0.000;0.000;2024-02-16T12:54:26;96805.91;;;17.22;67.84
48774;BME280;34576;0.000;0.000;2024-02-16T13:01:27;96797.38;;;17.20;67.89
48774;BME280;34576;0.000;0.000;2024-02-16T13:08:28;96801.91;;;17.19;67.90
48774;BME280;34576;0.000;0.000;2024-02-16T13:15:31;96796.59;;;17.19;68.10
48774;BME280;34576;0.000;0.000;2024-02-16T13:22:33;96805.63;;;17.18;67.95
48774;BME280;34576;0.000;0.000;2024-02-16T13:29:34;96804.56;;;17.19;67.83
48774;BME280;34576;0.000;0.000;2024-02-16T13:36:34;96808.81;;;17.20;68.08
48774;BME280;34576;0.000;0.000;2024-02-16T13:43:35;96818.63;;;17.20;68.12
48774;BME280;34576;0.000;0.000;2024-02-16T13:50:35;96821.28;;;17.20;67.97
48774;BME280;34576;0.000;0.000;2024-02-16T13:57:39;96819.44;;;17.20;68.08
48774;BME280;34576;0.000;0.000;2024-02-16T14:04:39;96823.97;;;17.25;67.76
48774;BME280;34576;0.000;0.000;2024-02-16T14:11:40;96827.41;;;17.25;67.86
48774;BME280;34576;0.000;0.000;2024-02-16T14:18:42;96825.84;;;17.24;67.81
48774;BME280;34576;0.000;0.000;2024-02-16T14:25:43;96838.56;;;17.22;68.01
48774;BME280;34576;0.000;0.000;2024-02-16T14:32:43;96838.06;;;17.20;67.84
48774;BME280;34576;0.000;0.000;2024-02-16T14:39:43;96851.88;;;17.22;68.06
48774;BME280;34576;0.000;0.000;2024-02-16T14:46:44;96848.44;;;17.22;67.88
48774;BME280;34576;0.000;0.000;2024-02-16T14:53:44;96849.22;;;17.22;67.84
48774;BME280;34576;0.000;0.000;2024-02-16T15:00:44;96855.06;;;17.19;68.03
48774;BME280;34576;0.000;0.000;2024-02-16T15:07:45;96860.13;;;17.21;67.86
48774;BME280;34576;0.000;0.000;2024-02-16T15:14:46;96873.41;;;17.21;67.93
48774;BME280;34576;0.000;0.000;2024-02-16T15:21:46;96871.00;;;17.19;68.04
48774;BME280;34576;0.000;0.000;2024-02-16T15:28:47;96869.69;;;17.22;67.99
48774;BME280;34576;0.000;0.000;2024-02-16T15:35:47;96887.47;;;17.21;68.01
48774;BME280;34576;0.000;0.000;2024-02-16T15:43:00;96897.59;;;17.19;68.06
48774;BME280;34576;0.000;0.000;2024-02-16T15:50:03;96906.63;;;17.18;67.96
48774;BME280;34576;0.000;0.000;2024-02-16T15:57:06;96901.31;;;17.18;67.95
48774;BME280;34576;0.000;0.000;2024-02-16T16:04:06;96909.84;;;17.20;67.95
48774;BME280;34576;0.000;0.000;2024-02-16T16:11:07;96917.81;;;17.20;68.01
48774;BME280;34576;0.000;0.000;2024-02-16T16:18:07;96922.56;;;17.18;68.15
48774;BME280;34576;0.000;0.000;2024-02-16T16:25:09;96929.50;;;17.19;67.74
48774;BME280;34576;0.000;0.000;2024-02-16T16:32:09;96934.81;;;17.19;67.78
48774;BME280;34576;0.000;0.000;2024-02-16T16:39:10;96940.13;;;17.19;67.80
48774;BME280;34576;0.000;0.000;2024-02-16T16:46:10;96941.72;;;17.20;67.87
48774;BME280;34576;0.000;0.000;2024-02-16T16:53:13;96944.13;;;17.22;67.86
48774;BME280;34576;0.000;0.000;2024-02-16T17:00:14;96958.47;;;17.21;67.43
48774;BME280;34576;0.000;0.000;2024-02-16T17:07:15;96970.97;;;17.20;67.49
48774;BME280;34576;0.000;0.000;2024-02-16T17:14:18;96990.63;;;17.19;67.50
48774;BME280;34576;0.000;0.000;2024-02-16T17:21:19;96993.56;;;17.18;67.43
48774;BME280;34576;0.000;0.000;2024-02-16T17:28:19;97008.16;;;17.15;67.34
48774;BME280;34576;0.000;0.000;2024-02-16T17:35:19;97003.91;;;17.14;67.39
48774;BME280;34576;0.000;0.000;2024-02-16T17:42:20;97018.00;;;17.15;67.37
48774;BME280;34576;0.000;0.000;2024-02-16T17:49:20;97029.97;;;17.12;67.38
48774;BME280;34576;0.000;0.000;2024-02-16T17:56:21;97035.81;;;17.14;67.36
48774;BME280;34576;0.000;0.000;2024-02-16T18:03:21;97029.97;;;17.12;67.46
48774;BME280;34576;0.000;0.000;2024-02-16T18:10:22;97052.84;;;17.13;67.35
48774;BME280;34576;0.000;0.000;2024-02-16T18:17:25;97058.16;;;17.13;67.33
48774;BME280;34576;0.000;0.000;2024-02-16T18:24:33;97065.03;;;17.14;67.32
48774;BME280;34576;0.000;0.000;2024-02-16T18:31:37;97064.50;;;17.12;67.53
48774;BME280;34576;0.000;0.000;2024-02-16T18:38:37;97071.19;;;17.15;67.19
48774;BME280;34576;0.000;0.000;2024-02-16T18:45:42;97076.75;;;17.18;67.61
48774;BME280;34576;0.000;0.000;2024-02-16T18:52:43;97073.03;;;17.14;67.70
48774;BME280;34576;0.000;0.000;2024-02-16T18:59:45;97074.38;;;17.17;67.56
48774;BME280;34576;0.000;0.000;2024-02-16T19:06:46;97082.59;;;17.15;67.67
48774;BME280;34576;0.000;0.000;2024-02-16T19:13:47;97098.03;;;17.18;67.49
48774;BME280;34576;0.000;0.000;2024-02-16T19:20:49;97104.13;;;17.14;67.56
48774;BME280;34576;0.000;0.000;2024-02-16T19:27:50;97108.41;;;17.15;67.54
48774;BME280;34576;0.000;0.000;2024-02-16T19:34:52;97114.75;;;17.14;67.64
48774;BME280;34576;0.000;0.000;2024-02-16T19:41:56;97127.25;;;17.13;67.65
48774;BME280;34576;0.000;0.000;2024-02-16T19:48:58;97139.22;;;17.16;67.67
48774;BME280;34576;0.000;0.000;2024-02-16T19:56:00;97138.16;;;17.17;67.31
48774;BME280;34576;0.000;0.000;2024-02-16T20:03:02;97142.38;;;17.13;67.66
48774;BME280;34576;0.000;0.000;2024-02-16T20:10:03;97149.63;;;17.17;67.45
48774;BME280;34576;0.000;0.000;2024-02-16T20:17:19;97154.13;;;17.17;67.35
48774;BME280;34576;0.000;0.000;2024-02-16T20:24:19;97158.63;;;17.16;67.30
48774;BME280;34576;0.000;0.000;2024-02-16T20:31:23;97169.28;;;17.16;67.17
48774;BME280;34576;0.000;0.000;2024-02-16T20:38:26;97176.69;;;17.14;67.40
48774;BME280;34576;0.000;0.000;2024-02-16T20:45:27;97177.00;;;17.18;67.23
48774;BME280;34576;0.000;0.000;2024-02-16T20:52:28;97188.47;;;17.29;66.91
48774;BME280;34576;0.000;0.000;2024-02-16T20:59:29;97195.38;;;17.30;67.22
48774;BME280;34576;0.000;0.000;2024-02-16T21:06:29;97202.31;;;17.31;67.44
48774;BME280;34576;0.000;0.000;2024-02-16T21:13:30;97207.63;;;17.31;67.54
48774;BME280;34576;0.000;0.000;2024-02-16T21:20:31;97214.81;;;17.30;67.69
48774;BME280;34576;0.000;0.000;2024-02-16T21:27:31;97224.38;;;17.31;67.57
48774;BME280;34576;0.000;0.000;2024-02-16T21:34:32;97232.34;;;17.31;67.74
48774;BME280;34576;0.000;0.000;2024-02-16T21:41:32;97235.84;;;17.32;67.77
48774;BME280;34576;0.000;0.000;2024-02-16T21:48:33;97250.97;;;17.31;67.80
48774;BME280;34576;0.000;0.000;2024-02-16T21:55:35;97256.03;;;17.33;67.73
48774;BME280;34576;0.000;0.000;2024-02-16T22:02:35;97267.75;;;17.32;67.98
48774;BME280;34576;0.000;0.000;2024-02-16T22:09:37;97259.50;;;17.33;67.62
48774;BME280;34576;0.000;0.000;2024-02-16T22:16:38;97271.97;;;17.33;67.75
48774;BME280;34576;0.000;0.000;2024-02-16T22:23:39;97273.84;;;17.32;67.60
48774;BME280;34576;0.000;0.000;2024-02-16T22:30:40;97278.91;;;17.34;67.74
48774;BME280;34576;0.000;0.000;2024-02-16T22:37:41;97286.63;;;17.35;68.03
48774;BME280;34576;0.000;0.000;2024-02-16T22:44:41;97282.91;;;17.36;68.08
48774;BME280;34576;0.000;0.000;2024-02-16T22:51:42;97292.78;;;17.41;68.73
48774;BME280;34576;0.000;0.000;2024-02-16T22:58:42;97293.31;;;17.38;69.11
48774;BME280;34576;0.000;0.000;2024-02-16T23:05:43;97300.22;;;17.39;69.37
48774;BME280;34576;0.000;0.000;2024-02-16T23:12:44;97305.00;;;17.37;69.52
48774;BME280;34576;0.000;0.000;2024-02-16T23:19:49;97311.66;;;17.39;69.61
48774;BME280;34576;0.000;0.000;2024-02-16T23:26:50;97328.41;;;17.40;69.67
48774;BME280;34576;0.000;0.000;2024-02-16T23:33:51;97328.41;;;17.40;69.92
48774;BME280;34576;0.000;0.000;2024-02-16T23:40:53;97336.94;;;17.42;70.11
48774;BME280;34576;0.000;0.000;2024-02-16T23:47:53;97336.44;;;17.45;70.25
48774;BME280;34576;0.000;0.000;2024-02-16T23:54:55;97342.81;;;17.44;70.24
